Flight Track Log - Related Links

Times and Time Zones

All times are in EDT time to prevent confusion due to time zone crossing. See the JIA2335 flight status page for this flight to view local times or setup timezone preferences in your user account.

Time Position Orientation Groundspeed Altitude Reporting Facility
EDT Latitude Longitude Course Direction KTS MPH feet Rate Location/Type
Fri 09:42:17 AM 39.8667 -75.2833 270° West 164 189 600  Level Philadelphia TRACON
Fri 09:43:36 AM 39.8500 -75.3667 255° West 201 231 3,600 1,984 Climbing Philadelphia TRACON
Fri 09:44:00 AM 39.9037 -75.6017 285° West  Level FlightAware Approximate
Fri 09:44:24 AM 39.8333 -75.4333 252° West 241 277 4,800  Level Philadelphia TRACON
Fri 09:45:00 AM 39.9067 -75.7269 258° West  Level FlightAware Approximate
Fri 09:45:30 AM 39.8667 -75.5167 298° West 271 312 7,500  Level Philadelphia TRACON
Fri 09:46:00 AM 39.9001 -75.8547 270° West  Level FlightAware Approximate
Fri 09:46:15 AM 39.8881 -75.5892 291° West 282 325 8,900  Level New York Center
Fri 09:47:00 AM 39.9000 -75.9834 270° West  Level FlightAware Approximate
Fri 09:47:15 AM 39.9150 -75.6939 289° West 291 335 10,000  Level New York Center
Fri 09:48:16 AM 39.9206 -75.8081 274° West 304 350 11,600 1,537 Climbing New York Center
Fri 09:49:16 AM 39.9300 -75.9253 276° West 325 374 13,100 1,361 Climbing New York Center
Fri 09:50:15 AM 39.9372 -76.0475 274° West 336 387 14,300 1,150 Climbing New York Center
Fri 09:51:16 AM 39.9442 -76.1700 274° West 342 394 15,400 1,082 Climbing New York Center
Fri 09:52:17 AM 39.9494 -76.2814 274° West 348 400 16,500 1,388 Climbing New York Center
Fri 09:53:17 AM 39.9458 -76.4003 268° West 348 400 18,200 1,587 Climbing New York Center
Fri 09:54:18 AM 39.9342 -76.5103 262° West 329 379 19,700 1,271 Climbing New York Center
Fri 09:55:15 AM 39.9392 -76.6244 273° West 322 371 20,700 1,026 Climbing New York Center
Fri 09:56:15 AM 39.9456 -76.7442 274° West 322 371 21,700 992 Climbing New York Center
Fri 09:57:16 AM 39.9561 -76.8617 277° West 329 379 22,700 1,091 Climbing New York Center
Fri 09:58:16 AM 39.9614 -77.0003 273° West 352 405 23,900 1,109 Climbing New York Center
Fri 09:59:15 AM 39.9692 -77.1283 275° West 352 405 24,900 1,000 Climbing New York Center
Fri 10:00:16 AM 39.9772 -77.2483 275° West 352 405 25,900 984 Climbing New York Center
Fri 10:01:17 AM 39.9850 -77.3736 275° West 352 405 26,900 982 Climbing New York Center
Fri 10:03:07 AM 39.9989 -77.6044 275° West 345 397 28,700 988 Climbing Cleveland Center
Fri 10:04:07 AM 40.0042 -77.7264 273° West 339 390 29,700 900 Climbing Cleveland Center
Fri 10:05:07 AM 40.0111 -77.8425 275° West 334 384 30,500 750 Climbing Cleveland Center
Fri 10:06:07 AM 40.0183 -77.9644 274° West 334 384 31,200 700 Climbing Cleveland Center
Fri 10:07:07 AM 40.0228 -78.0725 273° West 334 384 31,900 400 Climbing Cleveland Center
Fri 10:08:07 AM 40.0275 -78.1944 273° West 334 384 32,000 50 Climbing Cleveland Center
Fri 10:09:07 AM 40.0303 -78.3353 272° West 340 391 32,000  Level Cleveland Center
Fri 10:10:07 AM 40.0372 -78.4733 274° West 359 413 32,000  Level Cleveland Center
Fri 10:11:07 AM 40.0439 -78.6142 274° West 384 442 32,000  Level Cleveland Center
Fri 10:12:07 AM 40.0506 -78.7578 274° West 396 456 32,000 100 Level Cleveland Center
Fri 10:13:07 AM 40.0569 -78.9069 273° West 407 468 32,200 400 Climbing Cleveland Center
Fri 10:14:07 AM 40.0631 -79.0506 273° West 407 468 32,800 400 Climbing Cleveland Center
Fri 10:15:07 AM 40.0692 -79.1942 273° West 401 461 33,000 100 Climbing Cleveland Center
Fri 10:16:07 AM 40.0769 -79.3378 274° West 401 461 33,000  Level Cleveland Center
Fri 10:17:07 AM 40.0828 -79.4842 273° West 406 467 33,000  Level Cleveland Center
Fri 10:18:07 AM 40.0883 -79.6333 273° West 406 467 33,000 250 Level Cleveland Center
Fri 10:19:07 AM 40.0936 -79.7825 273° West 406 467 33,500 500 Climbing Cleveland Center
Fri 10:20:07 AM 40.0986 -79.9236 273° West 401 461 34,000 250 Climbing Cleveland Center
Fri 10:21:07 AM 40.0994 -80.0703 270° West 401 461 34,000  Level Cleveland Center
Fri 10:22:07 AM 40.1000 -80.2167 270° West 409 471 34,000  Level Cleveland Center
Fri 10:23:07 AM 40.1106 -80.3442 276° West 409 471 34,000  Level Cleveland Center
Fri 10:24:07 AM 40.1150 -80.4961 272° West 409 471 34,000  Level Cleveland Center
Fri 10:26:04 AM 40.1211 -80.7942 272° West 415 478 34,000  Level Indianapolis Center
Fri 10:27:05 AM 40.1247 -80.9431 272° West 408 470 34,000  Level Indianapolis Center
Fri 10:28:07 AM 40.1272 -81.0922 271° West 407 468 34,000  Level Indianapolis Center
Fri 10:29:08 AM 40.1308 -81.2383 272° West 401 461 34,000 -390 Level Indianapolis Center
Fri 10:30:10 AM 40.1336 -81.3850 271° West 400 460 33,200 -2,390 Descending Indianapolis Center
Fri 10:31:11 AM 40.1364 -81.5408 271° West 423 487 29,100 -2,537 Descending Indianapolis Center
Fri 10:32:13 AM 40.1397 -81.6969 272° West 426 490 28,000 -634 Descending Indianapolis Center
Fri 10:33:14 AM 40.1422 -81.8569 271° West 398 458 27,800 -590 Descending Indianapolis Center
Fri 10:34:15 AM 40.1447 -81.9994 271° West 391 450 26,800 -976 Descending Indianapolis Center
Fri 10:35:17 AM 40.1469 -82.1439 271° West 394 453 25,800 -976 Descending Indianapolis Center
Fri 10:36:18 AM 40.1489 -82.2894 271° West 397 457 24,800 -878 Descending Indianapolis Center
Fri 10:37:20 AM 40.1500 -82.4364 271° West 402 463 24,000 -927 Descending Indianapolis Center
Fri 10:38:21 AM 40.1511 -82.5833 271° West 401 461 22,900 -1,268 Descending Indianapolis Center
Fri 10:39:23 AM 40.1586 -82.7269 274° West 395 455 21,400 -1,463 Descending Indianapolis Center
Fri 10:40:24 AM 40.1661 -82.8592 274° West 368 423 19,900 -1,475 Descending Indianapolis Center
Fri 10:41:25 AM 40.1728 -82.9928 274° West 365 420 18,400 -1,610 Descending Indianapolis Center
Fri 10:42:27 AM 40.1797 -83.1272 274° West 370 426 16,600 -1,854 Descending Indianapolis Center
Fri 10:43:28 AM 40.1872 -83.2808 274° West 361 415 14,600 -1,707 Descending Indianapolis Center
Fri 10:44:30 AM 40.1931 -83.4064 274° West 348 400 13,100 -1,463 Descending Indianapolis Center
Fri 10:45:31 AM 40.1867 -83.5208 266° West 314 361 11,600 -1,475 Descending Indianapolis Center
Fri 10:46:32 AM 40.1703 -83.6244 258° West 290 334 10,100 -1,463 Descending Indianapolis Center
Fri 10:47:34 AM 40.1528 -83.7161 256° West 265 305 8,600 -1,463 Descending Indianapolis Center
Fri 10:48:35 AM 40.1153 -83.7989 239° Southwest 264 304 7,100 -1,512 Descending Indianapolis Center
Fri 10:49:37 AM 40.0706 -83.8842 236° Southwest 277 319 5,500 -1,512 Descending Indianapolis Center
Fri 10:50:38 AM 40.0264 -83.9636 234° Southwest 276 318 4,000 -1,279 Descending Indianapolis Center
Fri 10:51:39 AM 39.9869 -84.0400 236° Southwest 265 305 2,900 -1,082 Descending Indianapolis Center

Login

Don't have an account? Register now (free) for customized features, flight alerts, and more!